sensor_id;sensor_type;location;lat;lon;timestamp;P1;durP1;ratioP1;P2;durP2;ratioP2
73816;SDS011;62146;53.232;-1.304;2022-12-04T00:01:07;9.25;;;3.13;;
73816;SDS011;62146;53.232;-1.304;2022-12-04T00:03:35;6.38;;;2.92;;
73816;SDS011;62146;53.232;-1.304;2022-12-04T00:06:06;7.38;;;3.08;;
73816;SDS011;62146;53.232;-1.304;2022-12-04T00:08:34;6.63;;;3.03;;
73816;SDS011;62146;53.232;-1.304;2022-12-04T00:11:02;6.73;;;2.90;;
73816;SDS011;62146;53.232;-1.304;2022-12-04T00:13:29;5.95;;;2.80;;
73816;SDS011;62146;53.232;-1.304;2022-12-04T00:15:56;5.43;;;2.80;;
73816;SDS011;62146;53.232;-1.304;2022-12-04T00:18:24;6.47;;;2.72;;
73816;SDS011;62146;53.232;-1.304;2022-12-04T00:20:51;5.75;;;2.80;;
73816;SDS011;62146;53.232;-1.304;2022-12-04T00:23:17;6.13;;;2.80;;
73816;SDS011;62146;53.232;-1.304;2022-12-04T00:25:44;7.40;;;3.30;;
73816;SDS011;62146;53.232;-1.304;2022-12-04T00:28:17;7.40;;;2.80;;
73816;SDS011;62146;53.232;-1.304;2022-12-04T00:30:44;5.97;;;2.75;;
73816;SDS011;62146;53.232;-1.304;2022-12-04T00:33:11;6.88;;;2.95;;
73816;SDS011;62146;53.232;-1.304;2022-12-04T00:35:39;6.03;;;2.80;;
73816;SDS011;62146;53.232;-1.304;2022-12-04T00:38:06;8.57;;;2.85;;
73816;SDS011;62146;53.232;-1.304;2022-12-04T00:40:32;8.25;;;3.25;;
73816;SDS011;62146;53.232;-1.304;2022-12-04T00:42:59;6.20;;;2.72;;
73816;SDS011;62146;53.232;-1.304;2022-12-04T00:45:25;6.13;;;2.95;;
73816;SDS011;62146;53.232;-1.304;2022-12-04T00:47:52;6.17;;;2.77;;
73816;SDS011;62146;53.232;-1.304;2022-12-04T00:50:19;5.57;;;2.70;;
73816;SDS011;62146;53.232;-1.304;2022-12-04T00:52:45;6.15;;;2.58;;
73816;SDS011;62146;53.232;-1.304;2022-12-04T00:55:12;6.93;;;2.63;;
73816;SDS011;62146;53.232;-1.304;2022-12-04T00:57:39;6.68;;;3.00;;
73816;SDS011;62146;53.232;-1.304;2022-12-04T01:00:05;5.53;;;2.60;;
73816;SDS011;62146;53.232;-1.304;2022-12-04T01:02:33;5.00;;;2.72;;
73816;SDS011;62146;53.232;-1.304;2022-12-04T01:05:00;7.15;;;2.95;;
73816;SDS011;62146;53.232;-1.304;2022-12-04T01:07:27;5.40;;;2.50;;
73816;SDS011;62146;53.232;-1.304;2022-12-04T01:09:54;5.25;;;2.63;;
73816;SDS011;62146;53.232;-1.304;2022-12-04T01:12:21;5.80;;;2.80;;
73816;SDS011;62146;53.232;-1.304;2022-12-04T01:14:47;7.20;;;3.08;;
73816;SDS011;62146;53.232;-1.304;2022-12-04T01:17:14;9.25;;;4.05;;
73816;SDS011;62146;53.232;-1.304;2022-12-04T01:19:40;7.25;;;3.50;;
73816;SDS011;62146;53.232;-1.304;2022-12-04T01:22:07;6.97;;;3.70;;
73816;SDS011;62146;53.232;-1.304;2022-12-04T01:24:33;7.40;;;3.97;;
73816;SDS011;62146;53.232;-1.304;2022-12-04T01:27:00;7.13;;;3.58;;
73816;SDS011;62146;53.232;-1.304;2022-12-04T01:29:27;7.30;;;3.63;;
73816;SDS011;62146;53.232;-1.304;2022-12-04T01:31:53;8.40;;;3.63;;
73816;SDS011;62146;53.232;-1.304;2022-12-04T01:34:20;7.93;;;3.50;;
73816;SDS011;62146;53.232;-1.304;2022-12-04T01:36:46;7.97;;;3.40;;
73816;SDS011;62146;53.232;-1.304;2022-12-04T01:39:13;8.30;;;3.60;;
73816;SDS011;62146;53.232;-1.304;2022-12-04T01:41:40;6.13;;;3.60;;
73816;SDS011;62146;53.232;-1.304;2022-12-04T01:44:23;5.95;;;3.47;;
73816;SDS011;62146;53.232;-1.304;2022-12-04T01:46:51;7.28;;;3.55;;
73816;SDS011;62146;53.232;-1.304;2022-12-04T01:49:21;7.93;;;3.70;;
73816;SDS011;62146;53.232;-1.304;2022-12-04T01:51:55;5.72;;;3.30;;
73816;SDS011;62146;53.232;-1.304;2022-12-04T01:54:27;6.47;;;3.35;;
73816;SDS011;62146;53.232;-1.304;2022-12-04T01:56:58;7.75;;;3.60;;
73816;SDS011;62146;53.232;-1.304;2022-12-04T01:59:31;7.50;;;3.67;;
73816;SDS011;62146;53.232;-1.304;2022-12-04T02:02:06;7.43;;;3.50;;
73816;SDS011;62146;53.232;-1.304;2022-12-04T02:04:36;6.80;;;3.28;;
73816;SDS011;62146;53.232;-1.304;2022-12-04T02:07:05;7.57;;;3.80;;
73816;SDS011;62146;53.232;-1.304;2022-12-04T02:09:31;7.82;;;3.63;;
73816;SDS011;62146;53.232;-1.304;2022-12-04T02:14:45;7.67;;;3.77;;
73816;SDS011;62146;53.232;-1.304;2022-12-04T02:20:32;6.88;;;3.80;;
73816;SDS011;62146;53.232;-1.304;2022-12-04T02:25:53;7.13;;;3.88;;
73816;SDS011;62146;53.232;-1.304;2022-12-04T02:28:38;7.73;;;3.77;;
73816;SDS011;62146;53.232;-1.304;2022-12-04T02:31:08;6.75;;;3.60;;
73816;SDS011;62146;53.232;-1.304;2022-12-04T02:36:33;7.68;;;3.33;;
73816;SDS011;62146;53.232;-1.304;2022-12-04T02:39:12;8.05;;;3.88;;
73816;SDS011;62146;53.232;-1.304;2022-12-04T02:41:54;7.90;;;3.57;;
73816;SDS011;62146;53.232;-1.304;2022-12-04T02:44:28;6.70;;;3.45;;
73816;SDS011;62146;53.232;-1.304;2022-12-04T02:47:11;6.28;;;3.65;;
73816;SDS011;62146;53.232;-1.304;2022-12-04T02:49:44;8.15;;;3.83;;
73816;SDS011;62146;53.232;-1.304;2022-12-04T02:52:15;7.05;;;4.00;;
73816;SDS011;62146;53.232;-1.304;2022-12-04T02:54:48;7.70;;;3.70;;
73816;SDS011;62146;53.232;-1.304;2022-12-04T02:57:19;6.93;;;3.83;;
73816;SDS011;62146;53.232;-1.304;2022-12-04T02:59:49;7.40;;;3.70;;
73816;SDS011;62146;53.232;-1.304;2022-12-04T03:02:20;7.47;;;3.72;;
73816;SDS011;62146;53.232;-1.304;2022-12-04T03:04:53;7.88;;;4.40;;
73816;SDS011;62146;53.232;-1.304;2022-12-04T03:07:23;8.03;;;4.27;;
73816;SDS011;62146;53.232;-1.304;2022-12-04T03:09:59;7.80;;;4.10;;
73816;SDS011;62146;53.232;-1.304;2022-12-04T03:15:18;7.90;;;3.75;;
73816;SDS011;62146;53.232;-1.304;2022-12-04T03:18:34;6.88;;;4.07;;
73816;SDS011;62146;53.232;-1.304;2022-12-04T03:20:38;6.27;;;3.53;;
73816;SDS011;62146;53.232;-1.304;2022-12-04T03:23:08;9.43;;;3.80;;
73816;SDS011;62146;53.232;-1.304;2022-12-04T03:25:44;6.22;;;3.60;;
73816;SDS011;62146;53.232;-1.304;2022-12-04T03:28:23;6.43;;;3.75;;
73816;SDS011;62146;53.232;-1.304;2022-12-04T03:30:56;6.38;;;3.30;;
73816;SDS011;62146;53.232;-1.304;2022-12-04T03:33:33;5.87;;;3.13;;
73816;SDS011;62146;53.232;-1.304;2022-12-04T03:36:20;6.97;;;3.38;;
73816;SDS011;62146;53.232;-1.304;2022-12-04T03:38:56;5.55;;;3.20;;
73816;SDS011;62146;53.232;-1.304;2022-12-04T03:43:59;5.45;;;3.15;;
73816;SDS011;62146;53.232;-1.304;2022-12-04T03:46:41;7.77;;;3.13;;
73816;SDS011;62146;53.232;-1.304;2022-12-04T03:52:03;5.43;;;3.05;;
73816;SDS011;62146;53.232;-1.304;2022-12-04T03:54:41;6.10;;;2.92;;
73816;SDS011;62146;53.232;-1.304;2022-12-04T03:57:14;6.78;;;3.15;;
73816;SDS011;62146;53.232;-1.304;2022-12-04T03:59:48;6.33;;;2.97;;
73816;SDS011;62146;53.232;-1.304;2022-12-04T04:02:21;5.68;;;3.03;;
73816;SDS011;62146;53.232;-1.304;2022-12-04T04:04:54;5.88;;;3.00;;
73816;SDS011;62146;53.232;-1.304;2022-12-04T04:07:26;6.15;;;3.05;;
73816;SDS011;62146;53.232;-1.304;2022-12-04T04:10:04;6.38;;;2.85;;
73816;SDS011;62146;53.232;-1.304;2022-12-04T04:12:38;5.43;;;2.90;;
73816;SDS011;62146;53.232;-1.304;2022-12-04T04:15:12;5.47;;;2.70;;
73816;SDS011;62146;53.232;-1.304;2022-12-04T04:18:01;5.32;;;2.97;;
73816;SDS011;62146;53.232;-1.304;2022-12-04T04:20:51;5.57;;;2.75;;
73816;SDS011;62146;53.232;-1.304;2022-12-04T04:23:43;5.18;;;2.75;;
73816;SDS011;62146;53.232;-1.304;2022-12-04T04:26:35;6.80;;;3.00;;
73816;SDS011;62146;53.232;-1.304;2022-12-04T04:29:07;5.72;;;2.85;;
73816;SDS011;62146;53.232;-1.304;2022-12-04T04:42:27;7.65;;;3.33;;
73816;SDS011;62146;53.232;-1.304;2022-12-04T04:45:02;6.30;;;3.22;;
73816;SDS011;62146;53.232;-1.304;2022-12-04T04:47:46;6.35;;;3.30;;
73816;SDS011;62146;53.232;-1.304;2022-12-04T04:50:16;6.00;;;3.00;;
73816;SDS011;62146;53.232;-1.304;2022-12-04T04:52:45;6.47;;;3.40;;
73816;SDS011;62146;53.232;-1.304;2022-12-04T04:55:15;7.53;;;2.83;;
73816;SDS011;62146;53.232;-1.304;2022-12-04T04:57:43;7.95;;;3.53;;
73816;SDS011;62146;53.232;-1.304;2022-12-04T05:00:10;8.77;;;3.17;;
73816;SDS011;62146;53.232;-1.304;2022-12-04T05:02:39;6.00;;;3.00;;
73816;SDS011;62146;53.232;-1.304;2022-12-04T05:05:06;9.00;;;3.50;;
73816;SDS011;62146;53.232;-1.304;2022-12-04T05:07:33;5.63;;;3.10;;
73816;SDS011;62146;53.232;-1.304;2022-12-04T05:10:00;5.95;;;3.08;;
73816;SDS011;62146;53.232;-1.304;2022-12-04T05:12:26;7.43;;;3.00;;
73816;SDS011;62146;53.232;-1.304;2022-12-04T05:14:53;6.25;;;2.70;;
73816;SDS011;62146;53.232;-1.304;2022-12-04T05:17:19;5.97;;;2.80;;
73816;SDS011;62146;53.232;-1.304;2022-12-04T05:19:46;5.93;;;3.20;;
73816;SDS011;62146;53.232;-1.304;2022-12-04T05:22:28;6.07;;;2.90;;
73816;SDS011;62146;53.232;-1.304;2022-12-04T05:24:57;5.80;;;2.92;;
73816;SDS011;62146;53.232;-1.304;2022-12-04T05:27:24;5.95;;;3.08;;
73816;SDS011;62146;53.232;-1.304;2022-12-04T05:29:52;6.93;;;3.27;;
73816;SDS011;62146;53.232;-1.304;2022-12-04T05:32:20;6.38;;;2.97;;
73816;SDS011;62146;53.232;-1.304;2022-12-04T05:34:49;6.65;;;3.25;;
73816;SDS011;62146;53.232;-1.304;2022-12-04T05:37:16;5.20;;;2.67;;
73816;SDS011;62146;53.232;-1.304;2022-12-04T05:39:43;5.25;;;2.78;;
73816;SDS011;62146;53.232;-1.304;2022-12-04T05:42:09;6.13;;;3.00;;
73816;SDS011;62146;53.232;-1.304;2022-12-04T05:44:36;5.20;;;2.55;;
73816;SDS011;62146;53.232;-1.304;2022-12-04T05:47:03;5.30;;;2.70;;
73816;SDS011;62146;53.232;-1.304;2022-12-04T05:49:30;5.22;;;2.60;;
73816;SDS011;62146;53.232;-1.304;2022-12-04T05:51:58;6.65;;;3.00;;
73816;SDS011;62146;53.232;-1.304;2022-12-04T05:54:25;5.23;;;2.70;;
73816;SDS011;62146;53.232;-1.304;2022-12-04T05:56:52;7.30;;;2.72;;
73816;SDS011;62146;53.232;-1.304;2022-12-04T05:59:18;6.53;;;2.88;;
73816;SDS011;62146;53.232;-1.304;2022-12-04T06:01:45;4.72;;;2.15;;
73816;SDS011;62146;53.232;-1.304;2022-12-04T06:04:11;5.65;;;3.00;;
73816;SDS011;62146;53.232;-1.304;2022-12-04T06:06:38;5.47;;;2.80;;
73816;SDS011;62146;53.232;-1.304;2022-12-04T06:09:05;5.40;;;2.80;;
73816;SDS011;62146;53.232;-1.304;2022-12-04T06:11:34;5.28;;;2.40;;
73816;SDS011;62146;53.232;-1.304;2022-12-04T06:14:03;5.45;;;2.72;;
73816;SDS011;62146;53.232;-1.304;2022-12-04T06:16:32;6.05;;;2.60;;
73816;SDS011;62146;53.232;-1.304;2022-12-04T06:19:02;4.90;;;2.67;;
73816;SDS011;62146;53.232;-1.304;2022-12-04T06:21:31;5.13;;;2.60;;
73816;SDS011;62146;53.232;-1.304;2022-12-04T06:23:59;7.13;;;2.72;;
73816;SDS011;62146;53.232;-1.304;2022-12-04T06:26:28;5.05;;;2.60;;
73816;SDS011;62146;53.232;-1.304;2022-12-04T06:28:55;6.10;;;2.78;;
73816;SDS011;62146;53.232;-1.304;2022-12-04T06:31:24;5.10;;;2.43;;
73816;SDS011;62146;53.232;-1.304;2022-12-04T06:33:52;5.63;;;2.65;;
73816;SDS011;62146;53.232;-1.304;2022-12-04T06:36:19;6.90;;;2.60;;
73816;SDS011;62146;53.232;-1.304;2022-12-04T06:38:47;5.13;;;2.72;;
73816;SDS011;62146;53.232;-1.304;2022-12-04T06:41:15;5.07;;;2.60;;
73816;SDS011;62146;53.232;-1.304;2022-12-04T06:43:43;5.80;;;2.70;;
73816;SDS011;62146;53.232;-1.304;2022-12-04T06:46:11;5.90;;;2.50;;
73816;SDS011;62146;53.232;-1.304;2022-12-04T06:48:40;4.93;;;2.38;;
73816;SDS011;62146;53.232;-1.304;2022-12-04T06:53:42;6.38;;;2.42;;
73816;SDS011;62146;53.232;-1.304;2022-12-04T06:56:10;4.60;;;2.23;;
73816;SDS011;62146;53.232;-1.304;2022-12-04T06:58:38;5.00;;;2.35;;
73816;SDS011;62146;53.232;-1.304;2022-12-04T07:01:06;4.82;;;2.50;;
73816;SDS011;62146;53.232;-1.304;2022-12-04T07:03:35;5.45;;;2.30;;
73816;SDS011;62146;53.232;-1.304;2022-12-04T07:06:16;5.50;;;2.22;;
73816;SDS011;62146;53.232;-1.304;2022-12-04T07:08:49;4.83;;;2.40;;
73816;SDS011;62146;53.232;-1.304;2022-12-04T07:11:20;4.63;;;2.20;;
73816;SDS011;62146;53.232;-1.304;2022-12-04T07:13:48;5.95;;;2.35;;
73816;SDS011;62146;53.232;-1.304;2022-12-04T07:16:16;4.93;;;2.35;;
73816;SDS011;62146;53.232;-1.304;2022-12-04T07:18:44;5.15;;;2.40;;
73816;SDS011;62146;53.232;-1.304;2022-12-04T07:21:18;5.07;;;2.27;;
73816;SDS011;62146;53.232;-1.304;2022-12-04T07:23:49;5.60;;;2.33;;
73816;SDS011;62146;53.232;-1.304;2022-12-04T07:26:18;4.57;;;2.20;;
73816;SDS011;62146;53.232;-1.304;2022-12-04T07:28:45;6.13;;;2.17;;
73816;SDS011;62146;53.232;-1.304;2022-12-04T07:31:13;5.05;;;2.22;;
73816;SDS011;62146;53.232;-1.304;2022-12-04T07:33:41;4.60;;;2.10;;
73816;SDS011;62146;53.232;-1.304;2022-12-04T07:36:10;4.10;;;2.03;;
73816;SDS011;62146;53.232;-1.304;2022-12-04T07:38:38;5.65;;;2.20;;
73816;SDS011;62146;53.232;-1.304;2022-12-04T07:41:06;5.55;;;2.30;;
73816;SDS011;62146;53.232;-1.304;2022-12-04T07:43:34;5.82;;;2.30;;
73816;SDS011;62146;53.232;-1.304;2022-12-04T07:46:04;4.73;;;1.97;;
73816;SDS011;62146;53.232;-1.304;2022-12-04T07:48:33;5.97;;;2.20;;
73816;SDS011;62146;53.232;-1.304;2022-12-04T07:51:03;4.38;;;1.95;;
73816;SDS011;62146;53.232;-1.304;2022-12-04T07:53:34;5.97;;;2.38;;
73816;SDS011;62146;53.232;-1.304;2022-12-04T07:56:02;4.80;;;2.10;;
73816;SDS011;62146;53.232;-1.304;2022-12-04T07:58:30;5.80;;;2.33;;
73816;SDS011;62146;53.232;-1.304;2022-12-04T08:01:03;5.38;;;2.30;;
73816;SDS011;62146;53.232;-1.304;2022-12-04T08:03:33;4.25;;;1.95;;
73816;SDS011;62146;53.232;-1.304;2022-12-04T08:06:01;6.10;;;2.17;;
73816;SDS011;62146;53.232;-1.304;2022-12-04T08:08:29;6.40;;;2.30;;
73816;SDS011;62146;53.232;-1.304;2022-12-04T08:10:56;4.87;;;2.20;;
73816;SDS011;62146;53.232;-1.304;2022-12-04T08:13:23;5.95;;;2.90;;
73816;SDS011;62146;53.232;-1.304;2022-12-04T08:15:49;5.05;;;2.20;;
73816;SDS011;62146;53.232;-1.304;2022-12-04T08:18:16;5.45;;;2.38;;
73816;SDS011;62146;53.232;-1.304;2022-12-04T08:20:43;6.63;;;2.70;;
73816;SDS011;62146;53.232;-1.304;2022-12-04T08:23:10;5.97;;;2.60;;
73816;SDS011;62146;53.232;-1.304;2022-12-04T08:25:37;5.85;;;2.70;;
73816;SDS011;62146;53.232;-1.304;2022-12-04T08:28:05;5.05;;;2.35;;
73816;SDS011;62146;53.232;-1.304;2022-12-04T08:30:33;5.70;;;2.53;;
73816;SDS011;62146;53.232;-1.304;2022-12-04T08:33:00;7.13;;;3.05;;
73816;SDS011;62146;53.232;-1.304;2022-12-04T08:35:27;7.93;;;2.97;;
73816;SDS011;62146;53.232;-1.304;2022-12-04T08:37:53;5.25;;;2.80;;
73816;SDS011;62146;53.232;-1.304;2022-12-04T08:40:20;5.72;;;2.72;;
73816;SDS011;62146;53.232;-1.304;2022-12-04T08:42:46;6.43;;;2.95;;
73816;SDS011;62146;53.232;-1.304;2022-12-04T08:45:13;7.13;;;3.08;;
73816;SDS011;62146;53.232;-1.304;2022-12-04T08:47:40;6.50;;;3.13;;
73816;SDS011;62146;53.232;-1.304;2022-12-04T08:50:07;7.60;;;3.28;;
73816;SDS011;62146;53.232;-1.304;2022-12-04T08:52:33;6.40;;;3.08;;
73816;SDS011;62146;53.232;-1.304;2022-12-04T08:55:00;7.20;;;3.28;;
73816;SDS011;62146;53.232;-1.304;2022-12-04T08:57:26;9.32;;;3.30;;
73816;SDS011;62146;53.232;-1.304;2022-12-04T08:59:53;8.20;;;3.30;;
73816;SDS011;62146;53.232;-1.304;2022-12-04T09:02:20;7.85;;;3.33;;
73816;SDS011;62146;53.232;-1.304;2022-12-04T09:04:46;6.65;;;3.60;;
73816;SDS011;62146;53.232;-1.304;2022-12-04T09:07:13;9.02;;;3.58;;
73816;SDS011;62146;53.232;-1.304;2022-12-04T09:09:40;7.65;;;3.35;;
73816;SDS011;62146;53.232;-1.304;2022-12-04T09:12:13;8.63;;;4.13;;
73816;SDS011;62146;53.232;-1.304;2022-12-04T09:14:39;7.07;;;3.33;;
73816;SDS011;62146;53.232;-1.304;2022-12-04T09:17:06;8.23;;;3.60;;
73816;SDS011;62146;53.232;-1.304;2022-12-04T09:19:33;10.32;;;4.10;;
73816;SDS011;62146;53.232;-1.304;2022-12-04T09:22:00;11.52;;;4.10;;
73816;SDS011;62146;53.232;-1.304;2022-12-04T09:24:28;8.83;;;3.97;;
73816;SDS011;62146;53.232;-1.304;2022-12-04T09:26:55;8.68;;;4.25;;
73816;SDS011;62146;53.232;-1.304;2022-12-04T09:29:22;8.82;;;4.20;;
73816;SDS011;62146;53.232;-1.304;2022-12-04T09:31:48;9.45;;;4.35;;
73816;SDS011;62146;53.232;-1.304;2022-12-04T09:34:15;8.57;;;4.47;;
73816;SDS011;62146;53.232;-1.304;2022-12-04T09:36:41;12.53;;;4.40;;
73816;SDS011;62146;53.232;-1.304;2022-12-04T09:39:09;10.40;;;4.30;;
73816;SDS011;62146;53.232;-1.304;2022-12-04T09:49:24;10.60;;;4.60;;
73816;SDS011;62146;53.232;-1.304;2022-12-04T09:52:02;9.65;;;4.95;;
73816;SDS011;62146;53.232;-1.304;2022-12-04T09:54:39;10.90;;;4.60;;
73816;SDS011;62146;53.232;-1.304;2022-12-04T09:57:14;15.20;;;5.22;;
73816;SDS011;62146;53.232;-1.304;2022-12-04T09:59:50;10.38;;;4.68;;
73816;SDS011;62146;53.232;-1.304;2022-12-04T10:02:32;11.37;;;4.80;;
73816;SDS011;62146;53.232;-1.304;2022-12-04T10:05:03;10.95;;;4.70;;
73816;SDS011;62146;53.232;-1.304;2022-12-04T10:07:32;9.13;;;4.22;;
73816;SDS011;62146;53.232;-1.304;2022-12-04T10:10:12;10.68;;;4.95;;
73816;SDS011;62146;53.232;-1.304;2022-12-04T10:19:04;10.23;;;4.60;;
73816;SDS011;62146;53.232;-1.304;2022-12-04T10:26:55;11.00;;;4.70;;
73816;SDS011;62146;53.232;-1.304;2022-12-04T10:29:29;12.87;;;5.10;;
73816;SDS011;62146;53.232;-1.304;2022-12-04T10:34:50;14.75;;;5.40;;
73816;SDS011;62146;53.232;-1.304;2022-12-04T10:37:19;12.02;;;5.53;;
73816;SDS011;62146;53.232;-1.304;2022-12-04T10:42:30;12.93;;;5.23;;
73816;SDS011;62146;53.232;-1.304;2022-12-04T10:45:22;12.68;;;5.70;;
73816;SDS011;62146;53.232;-1.304;2022-12-04T10:47:49;11.38;;;5.25;;
73816;SDS011;62146;53.232;-1.304;2022-12-04T10:50:19;12.40;;;5.53;;
73816;SDS011;62146;53.232;-1.304;2022-12-04T10:52:48;10.75;;;5.30;;
73816;SDS011;62146;53.232;-1.304;2022-12-04T10:55:26;12.93;;;5.50;;
73816;SDS011;62146;53.232;-1.304;2022-12-04T10:58:00;11.88;;;5.47;;
73816;SDS011;62146;53.232;-1.304;2022-12-04T11:00:31;11.48;;;5.47;;
73816;SDS011;62146;53.232;-1.304;2022-12-04T11:03:00;14.23;;;6.03;;
73816;SDS011;62146;53.232;-1.304;2022-12-04T11:06:12;14.40;;;5.57;;
73816;SDS011;62146;53.232;-1.304;2022-12-04T11:08:40;11.67;;;5.87;;
73816;SDS011;62146;53.232;-1.304;2022-12-04T11:11:11;13.45;;;6.05;;
73816;SDS011;62146;53.232;-1.304;2022-12-04T11:13:39;13.65;;;6.20;;
73816;SDS011;62146;53.232;-1.304;2022-12-04T11:16:07;15.35;;;6.78;;
73816;SDS011;62146;53.232;-1.304;2022-12-04T11:18:50;12.75;;;6.28;;
73816;SDS011;62146;53.232;-1.304;2022-12-04T11:21:18;13.43;;;6.13;;
73816;SDS011;62146;53.232;-1.304;2022-12-04T11:23:49;15.77;;;6.50;;
73816;SDS011;62146;53.232;-1.304;2022-12-04T11:26:28;15.05;;;7.20;;
73816;SDS011;62146;53.232;-1.304;2022-12-04T11:28:57;14.35;;;6.68;;
73816;SDS011;62146;53.232;-1.304;2022-12-04T11:31:30;15.93;;;6.63;;
73816;SDS011;62146;53.232;-1.304;2022-12-04T11:34:02;13.07;;;5.77;;
73816;SDS011;62146;53.232;-1.304;2022-12-04T11:36:34;16.02;;;6.65;;
73816;SDS011;62146;53.232;-1.304;2022-12-04T11:39:04;16.13;;;6.25;;
73816;SDS011;62146;53.232;-1.304;2022-12-04T11:41:37;14.80;;;6.68;;
73816;SDS011;62146;53.232;-1.304;2022-12-04T11:44:04;13.43;;;5.93;;
73816;SDS011;62146;53.232;-1.304;2022-12-04T11:46:32;13.93;;;6.10;;
73816;SDS011;62146;53.232;-1.304;2022-12-04T11:48:59;12.60;;;5.95;;
73816;SDS011;62146;53.232;-1.304;2022-12-04T12:00:14;12.93;;;5.77;;
73816;SDS011;62146;53.232;-1.304;2022-12-04T12:25:29;11.10;;;5.80;;
73816;SDS011;62146;53.232;-1.304;2022-12-04T12:33:17;12.98;;;5.70;;
73816;SDS011;62146;53.232;-1.304;2022-12-04T12:35:59;12.77;;;6.10;;
73816;SDS011;62146;53.232;-1.304;2022-12-04T12:38:46;13.02;;;5.53;;
73816;SDS011;62146;53.232;-1.304;2022-12-04T12:41:28;11.00;;;5.60;;
73816;SDS011;62146;53.232;-1.304;2022-12-04T12:47:00;13.20;;;5.65;;
73816;SDS011;62146;53.232;-1.304;2022-12-04T12:57:54;13.82;;;6.05;;
73816;SDS011;62146;53.232;-1.304;2022-12-04T13:00:27;14.82;;;5.20;;
73816;SDS011;62146;53.232;-1.304;2022-12-04T13:02:59;13.45;;;5.68;;
73816;SDS011;62146;53.232;-1.304;2022-12-04T13:05:39;12.35;;;5.65;;
73816;SDS011;62146;53.232;-1.304;2022-12-04T13:08:31;11.67;;;5.10;;
73816;SDS011;62146;53.232;-1.304;2022-12-04T13:11:04;12.73;;;5.63;;
73816;SDS011;62146;53.232;-1.304;2022-12-04T13:13:56;13.10;;;5.63;;
73816;SDS011;62146;53.232;-1.304;2022-12-04T13:16:25;13.38;;;6.18;;
73816;SDS011;62146;53.232;-1.304;2022-12-04T13:21:42;11.00;;;5.10;;
73816;SDS011;62146;53.232;-1.304;2022-12-04T13:32:33;13.15;;;6.00;;
73816;SDS011;62146;53.232;-1.304;2022-12-04T13:35:27;11.57;;;5.70;;
73816;SDS011;62146;53.232;-1.304;2022-12-04T13:41:03;12.95;;;5.72;;
73816;SDS011;62146;53.232;-1.304;2022-12-04T13:43:51;11.15;;;5.50;;
73816;SDS011;62146;53.232;-1.304;2022-12-04T13:46:24;11.40;;;5.50;;
73816;SDS011;62146;53.232;-1.304;2022-12-04T13:48:51;12.60;;;5.77;;
73816;SDS011;62146;53.232;-1.304;2022-12-04T13:56:36;12.20;;;5.68;;
73816;SDS011;62146;53.232;-1.304;2022-12-04T13:59:21;11.73;;;5.13;;
73816;SDS011;62146;53.232;-1.304;2022-12-04T14:01:48;10.90;;;5.53;;
73816;SDS011;62146;53.232;-1.304;2022-12-04T14:04:30;11.45;;;5.57;;
73816;SDS011;62146;53.232;-1.304;2022-12-04T14:07:01;11.10;;;5.25;;
73816;SDS011;62146;53.232;-1.304;2022-12-04T14:12:09;12.88;;;5.60;;
73816;SDS011;62146;53.232;-1.304;2022-12-04T14:17:31;11.27;;;5.25;;
73816;SDS011;62146;53.232;-1.304;2022-12-04T14:20:04;12.27;;;5.72;;
73816;SDS011;62146;53.232;-1.304;2022-12-04T14:22:51;8.50;;;4.97;;
73816;SDS011;62146;53.232;-1.304;2022-12-04T14:27:57;11.53;;;5.37;;
73816;SDS011;62146;53.232;-1.304;2022-12-04T14:30:24;8.80;;;5.07;;
73816;SDS011;62146;53.232;-1.304;2022-12-04T14:33:04;9.27;;;4.85;;
73816;SDS011;62146;53.232;-1.304;2022-12-04T14:35:42;10.93;;;4.95;;
73816;SDS011;62146;53.232;-1.304;2022-12-04T14:38:17;9.35;;;4.70;;
73816;SDS011;62146;53.232;-1.304;2022-12-04T14:40:51;8.77;;;4.40;;
73816;SDS011;62146;53.232;-1.304;2022-12-04T14:43:21;9.90;;;4.57;;
73816;SDS011;62146;53.232;-1.304;2022-12-04T14:49:06;8.77;;;4.43;;
73816;SDS011;62146;53.232;-1.304;2022-12-04T14:54:31;9.00;;;4.37;;
73816;SDS011;62146;53.232;-1.304;2022-12-04T14:58:03;12.82;;;4.78;;
73816;SDS011;62146;53.232;-1.304;2022-12-04T15:00:22;8.93;;;3.90;;
73816;SDS011;62146;53.232;-1.304;2022-12-04T15:02:56;8.77;;;4.65;;
73816;SDS011;62146;53.232;-1.304;2022-12-04T15:05:26;7.30;;;4.00;;
73816;SDS011;62146;53.232;-1.304;2022-12-04T15:07:59;7.97;;;4.20;;
73816;SDS011;62146;53.232;-1.304;2022-12-04T15:10:28;8.60;;;4.65;;
73816;SDS011;62146;53.232;-1.304;2022-12-04T15:13:29;9.75;;;4.05;;
73816;SDS011;62146;53.232;-1.304;2022-12-04T15:16:20;8.43;;;3.95;;
73816;SDS011;62146;53.232;-1.304;2022-12-04T15:18:59;8.07;;;4.47;;
73816;SDS011;62146;53.232;-1.304;2022-12-04T15:21:33;8.37;;;3.87;;
73816;SDS011;62146;53.232;-1.304;2022-12-04T15:24:10;9.70;;;4.47;;
73816;SDS011;62146;53.232;-1.304;2022-12-04T15:26:46;11.85;;;4.53;;
73816;SDS011;62146;53.232;-1.304;2022-12-04T15:29:16;10.55;;;4.35;;
73816;SDS011;62146;53.232;-1.304;2022-12-04T15:31:48;8.80;;;4.43;;
73816;SDS011;62146;53.232;-1.304;2022-12-04T15:34:41;10.83;;;4.50;;
73816;SDS011;62146;53.232;-1.304;2022-12-04T15:37:16;9.20;;;4.32;;
73816;SDS011;62146;53.232;-1.304;2022-12-04T15:39:46;9.18;;;4.53;;
73816;SDS011;62146;53.232;-1.304;2022-12-04T15:42:18;11.10;;;5.18;;
73816;SDS011;62146;53.232;-1.304;2022-12-04T15:44:52;9.32;;;4.57;;
73816;SDS011;62146;53.232;-1.304;2022-12-04T15:47:21;11.77;;;5.27;;
73816;SDS011;62146;53.232;-1.304;2022-12-04T15:49:50;10.18;;;5.25;;
73816;SDS011;62146;53.232;-1.304;2022-12-04T15:54:58;10.00;;;5.25;;
73816;SDS011;62146;53.232;-1.304;2022-12-04T15:57:33;12.55;;;4.97;;
73816;SDS011;62146;53.232;-1.304;2022-12-04T16:00:03;12.27;;;5.93;;
73816;SDS011;62146;53.232;-1.304;2022-12-04T16:02:47;11.55;;;5.53;;
73816;SDS011;62146;53.232;-1.304;2022-12-04T16:07:48;13.73;;;6.20;;
73816;SDS011;62146;53.232;-1.304;2022-12-04T16:12:53;12.80;;;6.27;;
73816;SDS011;62146;53.232;-1.304;2022-12-04T16:15:21;15.90;;;7.15;;
73816;SDS011;62146;53.232;-1.304;2022-12-04T16:17:50;15.43;;;7.20;;
73816;SDS011;62146;53.232;-1.304;2022-12-04T16:20:17;14.95;;;7.38;;
73816;SDS011;62146;53.232;-1.304;2022-12-04T16:22:45;16.42;;;8.27;;
73816;SDS011;62146;53.232;-1.304;2022-12-04T16:25:16;15.27;;;8.37;;
73816;SDS011;62146;53.232;-1.304;2022-12-04T16:27:43;16.30;;;8.00;;
73816;SDS011;62146;53.232;-1.304;2022-12-04T16:30:11;15.45;;;8.38;;
73816;SDS011;62146;53.232;-1.304;2022-12-04T16:32:39;17.58;;;8.82;;
73816;SDS011;62146;53.232;-1.304;2022-12-04T16:35:06;16.10;;;8.55;;
73816;SDS011;62146;53.232;-1.304;2022-12-04T16:37:32;18.97;;;8.90;;
73816;SDS011;62146;53.232;-1.304;2022-12-04T16:39:59;16.27;;;8.95;;
73816;SDS011;62146;53.232;-1.304;2022-12-04T16:42:31;18.48;;;9.25;;
73816;SDS011;62146;53.232;-1.304;2022-12-04T16:44:58;16.98;;;8.90;;
73816;SDS011;62146;53.232;-1.304;2022-12-04T16:47:24;17.55;;;9.00;;
73816;SDS011;62146;53.232;-1.304;2022-12-04T16:49:51;18.73;;;9.50;;
73816;SDS011;62146;53.232;-1.304;2022-12-04T16:52:18;16.85;;;9.23;;
73816;SDS011;62146;53.232;-1.304;2022-12-04T16:54:46;17.98;;;9.13;;
73816;SDS011;62146;53.232;-1.304;2022-12-04T16:57:12;18.02;;;9.57;;
73816;SDS011;62146;53.232;-1.304;2022-12-04T16:59:39;21.60;;;9.85;;
73816;SDS011;62146;53.232;-1.304;2022-12-04T17:02:12;20.60;;;9.97;;
73816;SDS011;62146;53.232;-1.304;2022-12-04T17:04:42;20.55;;;9.75;;
73816;SDS011;62146;53.232;-1.304;2022-12-04T17:07:09;19.50;;;9.63;;
73816;SDS011;62146;53.232;-1.304;2022-12-04T17:09:35;20.02;;;10.30;;
73816;SDS011;62146;53.232;-1.304;2022-12-04T17:12:02;18.20;;;10.27;;
73816;SDS011;62146;53.232;-1.304;2022-12-04T17:14:28;19.90;;;10.23;;
73816;SDS011;62146;53.232;-1.304;2022-12-04T17:16:55;16.83;;;9.52;;
73816;SDS011;62146;53.232;-1.304;2022-12-04T17:19:23;18.48;;;9.38;;
73816;SDS011;62146;53.232;-1.304;2022-12-04T17:21:50;18.50;;;10.02;;